< < Back
Terminal Aerodrome Forecast


Current Version              Previous Versions:   1  2  3  4  5  6  7  8  9  

Terminal Aerodrome Forecast

694
FTUS42 KMLB 042107 AAA
TAFMCO
TAF AMD
KMCO 042107Z 0421/0518 19011G17KT P6SM SCT025 SCT035
     FM050100 18004KT P6SM SCT025 SCT035
     FM050900 VRB03KT 5SM BR SCT010 SCT025
     FM051400 18007KT P6SM SCT025 SCT035=

Latest METAR

734
SAUS70 KWBC 042220 RRA
MTRMCO
METAR KMCO 042153Z 20008KT 10SM SCT055 29/18 A3006 RMK AO2 SLP176
T02940178


USA.gov is the U.S. government's official web portal to all federal, state and local government web resources and services.